Time,TemperatureF,DewpointF,PressureIn,WindDirection,WindDirectionDegrees,WindSpeedMPH,WindSpeedGustMPH,Humidity,HourlyPrecipIn,Conditions,Clouds,dailyrainin,SolarRadiationWatts/m^2,SoftwareType,DateUTC
2013-03-17 00:03:00,27.5,25.2,29.95,SSW,192,0.0,0.0,91,0.00,,,0.00,32767.00,ALWS 1.0-beta,2013-03-17 04:03:00,
2013-03-17 00:08:00,27.3,25.0,29.95,SSW,192,0.0,0.0,91,0.00,,,0.00,32767.00,ALWS 1.0-beta,2013-03-17 04:08:00,
2013-03-17 00:13:00,27.1,24.8,29.95,SSW,192,0.0,0.0,91,0.00,,,0.00,32767.00,ALWS 1.0-beta,2013-03-17 04:13:00,
2013-03-17 00:18:00,26.9,24.6,29.95,South,191,0.0,0.0,91,0.00,,,0.00,32767.00,ALWS 1.0-beta,2013-03-17 04:18:00,
2013-03-17 00:23:00,26.7,24.4,29.96,South,191,0.0,0.0,91,0.00,,,0.00,32767.00,ALWS 1.0-beta,2013-03-17 04:23:00,
2013-03-17 00:28:00,26.5,24.2,29.96,SSW,192,0.0,0.0,91,0.00,,,0.00,32767.00,ALWS 1.0-beta,2013-03-17 04:28:00,
2013-03-17 00:33:00,26.2,23.7,29.96,SSW,192,0.0,0.0,90,0.00,,,0.00,32767.00,ALWS 1.0-beta,2013-03-17 04:33:00,
2013-03-17 00:38:00,26.0,23.5,29.96,South,191,0.0,0.0,90,0.00,,,0.00,32767.00,ALWS 1.0-beta,2013-03-17 04:38:00,
2013-03-17 00:43:00,25.8,23.5,29.96,SSW,192,0.0,0.0,91,0.00,,,0.00,32767.00,ALWS 1.0-beta,2013-03-17 04:43:00,
2013-03-17 00:48:00,25.6,23.1,29.96,SSW,192,0.0,0.0,90,0.00,,,0.00,32767.00,ALWS 1.0-beta,2013-03-17 04:48:00,
2013-03-17 00:53:00,25.4,22.9,29.96,South,191,0.0,0.0,90,0.00,,,0.00,32767.00,ALWS 1.0-beta,2013-03-17 04:53:00,
2013-03-17 00:58:00,25.1,22.6,29.96,South,191,0.0,0.0,90,0.00,,,0.00,32767.00,ALWS 1.0-beta,2013-03-17 04:58:00,
2013-03-17 01:03:00,24.9,22.6,29.95,South,191,0.0,0.0,91,0.00,,,0.00,32767.00,ALWS 1.0-beta,2013-03-17 05:03:00,
2013-03-17 01:08:00,24.8,22.5,29.95,SSE,165,0.0,0.0,91,0.00,,,0.00,32767.00,ALWS 1.0-beta,2013-03-17 05:08:00,
2013-03-17 01:13:00,24.7,22.5,29.95,SSE,166,0.0,0.0,91,0.00,,,0.00,32767.00,ALWS 1.0-beta,2013-03-17 05:13:00,
2013-03-17 01:18:00,24.7,22.5,29.95,SSE,166,0.0,0.0,91,0.00,,,0.00,32767.00,ALWS 1.0-beta,2013-03-17 05:18:00,
2013-03-17 01:23:00,24.7,22.5,29.95,SSE,167,0.0,0.0,91,0.00,,,0.00,32767.00,ALWS 1.0-beta,2013-03-17 05:23:00,
2013-03-17 01:28:00,24.5,22.2,29.95,SSE,167,0.0,0.0,91,0.00,,,0.00,32767.00,ALWS 1.0-beta,2013-03-17 05:28:00,
2013-03-17 01:33:00,24.4,22.4,29.95,SSE,167,1.0,1.0,92,0.00,,,0.00,32767.00,ALWS 1.0-beta,2013-03-17 05:33:00,
2013-03-17 01:38:00,24.4,22.4,29.95,SSE,167,0.0,0.0,92,0.00,,,0.00,32767.00,ALWS 1.0-beta,2013-03-17 05:38:00,
2013-03-17 01:43:00,24.3,22.3,29.95,SSE,167,0.0,0.0,92,0.00,,,0.00,32767.00,ALWS 1.0-beta,2013-03-17 05:43:00,
2013-03-17 01:48:00,24.3,22.3,29.95,SSE,167,0.0,0.0,92,0.00,,,0.00,32767.00,ALWS 1.0-beta,2013-03-17 05:48:00,
2013-03-17 01:53:00,24.2,22.2,29.96,SSE,167,0.0,0.0,92,0.00,,,0.00,32767.00,ALWS 1.0-beta,2013-03-17 05:53:00,
2013-03-17 01:58:00,24.2,22.2,29.96,SW,225,1.0,1.0,92,0.00,,,0.00,32767.00,ALWS 1.0-beta,2013-03-17 05:58:00,
2013-03-17 02:03:00,24.2,22.2,29.96,SW,236,0.0,0.0,92,0.00,,,0.00,32767.00,ALWS 1.0-beta,2013-03-17 06:03:00,
2013-03-17 02:08:00,24.3,22.3,29.96,West,267,0.0,1.0,92,0.00,,,0.00,32767.00,ALWS 1.0-beta,2013-03-17 06:08:00,
2013-03-17 02:13:00,24.5,22.5,29.96,West,276,1.0,2.0,92,0.00,,,0.00,32767.00,ALWS 1.0-beta,2013-03-17 06:13:00,
2013-03-17 02:18:00,24.9,22.6,29.97,WNW,287,0.0,0.0,91,0.00,,,0.00,32767.00,ALWS 1.0-beta,2013-03-17 06:18:00,
2013-03-17 02:23:00,25.4,22.9,29.97,WNW,284,0.0,0.0,90,0.00,,,0.00,32767.00,ALWS 1.0-beta,2013-03-17 06:23:00,
2013-03-17 02:28:00,25.8,22.7,29.97,West,265,1.0,1.0,88,0.00,,,0.00,32767.00,ALWS 1.0-beta,2013-03-17 06:28:00,
2013-03-17 02:33:00,26.2,22.6,29.98,West,269,0.0,1.0,86,0.00,,,0.00,32767.00,ALWS 1.0-beta,2013-03-17 06:33:00,
2013-03-17 02:38:00,26.5,22.3,29.98,West,269,0.0,0.0,84,0.00,,,0.00,32767.00,ALWS 1.0-beta,2013-03-17 06:38:00,
2013-03-17 02:43:00,26.7,22.0,29.98,West,281,0.0,1.0,82,0.00,,,0.00,32767.00,ALWS 1.0-beta,2013-03-17 06:43:00,
2013-03-17 02:48:00,26.7,21.7,29.98,West,279,2.0,2.0,81,0.00,,,0.00,32767.00,ALWS 1.0-beta,2013-03-17 06:48:00,
2013-03-17 02:53:00,26.8,21.2,29.98,West,279,0.0,0.0,79,0.00,,,0.00,32767.00,ALWS 1.0-beta,2013-03-17 06:53:00,
2013-03-17 02:58:00,26.8,21.2,29.99,WSW,254,1.0,4.0,79,0.00,,,0.00,32767.00,ALWS 1.0-beta,2013-03-17 06:58:00,
2013-03-17 03:03:00,26.8,21.2,29.98,WSW,255,0.0,4.0,79,0.00,,,0.00,32767.00,ALWS 1.0-beta,2013-03-17 07:03:00,
2013-03-17 03:07:00,26.7,21.1,29.99,WSW,250,0.0,0.0,79,0.00,,,0.00,32767.00,ALWS 1.0-beta,2013-03-17 07:07:00,
2013-03-17 03:12:00,26.6,20.7,29.99,NW,304,2.0,2.0,78,0.00,,,0.00,32767.00,ALWS 1.0-beta,2013-03-17 07:12:00,
2013-03-17 03:17:00,26.6,20.7,29.98,WNW,284,0.0,1.0,78,0.00,,,0.00,32767.00,ALWS 1.0-beta,2013-03-17 07:17:00,
2013-03-17 03:22:00,26.6,20.1,29.98,WNW,292,1.0,2.0,76,0.00,,,0.00,32767.00,ALWS 1.0-beta,2013-03-17 07:22:00,
2013-03-17 03:27:00,26.7,19.9,29.98,WNW,291,0.0,0.0,75,0.00,,,0.00,32767.00,ALWS 1.0-beta,2013-03-17 07:27:00,
2013-03-17 03:32:00,26.7,19.2,29.98,WNW,297,5.0,5.0,73,0.00,,,0.00,32767.00,ALWS 1.0-beta,2013-03-17 07:32:00,
2013-03-17 03:38:00,26.8,19.0,29.98,WSW,250,4.0,4.0,72,0.00,,,0.00,32767.00,ALWS 1.0-beta,2013-03-17 07:38:00,
2013-03-17 03:42:00,26.9,18.4,29.99,NW,308,0.0,2.0,70,0.00,,,0.00,32767.00,ALWS 1.0-beta,2013-03-17 07:42:00,
2013-03-17 03:47:00,26.9,18.1,30.00,NW,304,4.0,9.0,69,0.00,,,0.00,32767.00,ALWS 1.0-beta,2013-03-17 07:47:00,
2013-03-17 03:52:00,26.9,17.8,29.99,West,274,0.0,5.0,68,0.00,,,0.00,32767.00,ALWS 1.0-beta,2013-03-17 07:52:00,
2013-03-17 03:57:00,26.9,17.4,29.99,WNW,298,4.0,6.0,67,0.00,,,0.00,32767.00,ALWS 1.0-beta,2013-03-17 07:57:00,
2013-03-17 04:02:00,26.8,17.3,29.99,NW,304,0.0,1.0,67,0.00,,,0.00,32767.00,ALWS 1.0-beta,2013-03-17 08:02:00,
2013-03-17 04:07:00,26.7,17.2,30.00,NNW,334,2.0,3.0,67,0.00,,,0.00,32767.00,ALWS 1.0-beta,2013-03-17 08:07:00,
2013-03-17 04:12:00,26.6,17.1,29.99,WNW,286,2.0,2.0,67,0.00,,,0.00,32767.00,ALWS 1.0-beta,2013-03-17 08:12:00,
2013-03-17 04:17:00,26.5,17.0,30.00,WNW,289,4.0,4.0,67,0.00,,,0.00,32767.00,ALWS 1.0-beta,2013-03-17 08:17:00,
2013-03-17 04:22:00,26.3,16.9,29.99,WNW,301,3.0,5.0,67,0.00,,,0.00,32767.00,ALWS 1.0-beta,2013-03-17 08:22:00,
2013-03-17 04:27:00,26.2,16.8,29.99,NNW,327,2.0,7.0,67,0.00,,,0.00,32767.00,ALWS 1.0-beta,2013-03-17 08:27:00,
2013-03-17 04:32:00,26.1,16.7,30.00,West,281,1.0,2.0,67,0.00,,,0.00,32767.00,ALWS 1.0-beta,2013-03-17 08:32:00,
2013-03-17 04:38:00,26.0,16.2,29.99,WNW,284,4.0,4.0,66,0.00,,,0.00,32767.00,ALWS 1.0-beta,2013-03-17 08:38:00,
2013-03-17 04:42:00,26.0,16.2,29.99,West,267,2.0,5.0,66,0.00,,,0.00,32767.00,ALWS 1.0-beta,2013-03-17 08:42:00,
2013-03-17 04:47:00,25.9,16.5,30.00,WSW,251,4.0,5.0,67,0.00,,,0.00,32767.00,ALWS 1.0-beta,2013-03-17 08:47:00,
2013-03-17 04:52:00,25.8,16.0,30.00,WNW,297,4.0,4.0,66,0.00,,,0.00,32767.00,ALWS 1.0-beta,2013-03-17 08:52:00,
2013-03-17 04:57:00,25.8,15.7,30.00,West,267,0.0,0.0,65,0.00,,,0.00,32767.00,ALWS 1.0-beta,2013-03-17 08:57:00,
2013-03-17 05:02:00,25.7,15.9,30.01,WSW,244,5.0,7.0,66,0.00,,,0.00,32767.00,ALWS 1.0-beta,2013-03-17 09:02:00,
2013-03-17 05:07:00,25.6,15.8,30.01,WSW,238,5.0,6.0,66,0.00,,,0.00,32767.00,ALWS 1.0-beta,2013-03-17 09:07:00,
2013-03-17 05:13:00,25.6,15.8,30.02,WSW,245,1.0,1.0,66,0.00,,,0.00,32767.00,ALWS 1.0-beta,2013-03-17 09:13:00,
2013-03-17 05:18:00,25.5,15.7,30.03,NNE,30,0.0,0.0,66,0.00,,,0.00,32767.00,ALWS 1.0-beta,2013-03-17 09:18:00,
2013-03-17 05:24:00,25.4,15.6,30.03,WSW,246,0.0,0.0,66,0.00,,,0.00,32767.00,ALWS 1.0-beta,2013-03-17 09:24:00,
2013-03-17 05:29:00,25.2,15.4,30.02,WSW,253,0.0,0.0,66,0.00,,,0.00,32767.00,ALWS 1.0-beta,2013-03-17 09:29:00,
2013-03-17 05:34:00,25.1,15.4,30.02,West,259,1.0,4.0,66,0.00,,,0.00,32767.00,ALWS 1.0-beta,2013-03-17 09:34:00,
2013-03-17 05:39:00,25.0,14.9,30.03,WNW,295,0.0,0.0,65,0.00,,,0.00,32767.00,ALWS 1.0-beta,2013-03-17 09:39:00,
2013-03-17 05:44:00,24.9,15.2,30.04,SW,215,0.0,0.0,66,0.00,,,0.00,32767.00,ALWS 1.0-beta,2013-03-17 09:44:00,
2013-03-17 05:49:00,24.9,14.8,30.03,WNW,290,0.0,0.0,65,0.00,,,0.00,32767.00,ALWS 1.0-beta,2013-03-17 09:49:00,
2013-03-17 05:54:00,24.8,14.7,30.04,WSW,249,4.0,4.0,65,0.00,,,0.00,32767.00,ALWS 1.0-beta,2013-03-17 09:54:00,
2013-03-17 05:59:00,24.8,15.1,30.05,West,272,0.0,0.0,66,0.00,,,0.00,32767.00,ALWS 1.0-beta,2013-03-17 09:59:00,
2013-03-17 06:04:00,24.7,15.0,30.05,West,272,0.0,0.0,66,0.00,,,0.00,32767.00,ALWS 1.0-beta,2013-03-17 10:04:00,
2013-03-17 06:09:00,24.6,14.9,30.05,WNW,288,0.0,1.0,66,0.00,,,0.00,32767.00,ALWS 1.0-beta,2013-03-17 10:09:00,
2013-03-17 06:14:00,24.4,14.7,30.06,WNW,282,1.0,5.0,66,0.00,,,0.00,32767.00,ALWS 1.0-beta,2013-03-17 10:14:00,
2013-03-17 06:19:00,24.3,14.6,30.06,West,271,2.0,2.0,66,0.00,,,0.00,32767.00,ALWS 1.0-beta,2013-03-17 10:19:00,
2013-03-17 06:24:00,24.2,14.5,30.06,West,267,1.0,4.0,66,0.00,,,0.00,32767.00,ALWS 1.0-beta,2013-03-17 10:24:00,
2013-03-17 06:29:00,24.1,14.4,30.06,West,261,2.0,6.0,66,0.00,,,0.00,32767.00,ALWS 1.0-beta,2013-03-17 10:29:00,
2013-03-17 06:34:00,23.9,14.2,30.06,WSW,245,5.0,5.0,66,0.00,,,0.00,32767.00,ALWS 1.0-beta,2013-03-17 10:34:00,
2013-03-17 06:39:00,23.9,14.2,30.07,WNW,292,4.0,4.0,66,0.00,,,0.00,32767.00,ALWS 1.0-beta,2013-03-17 10:39:00,
2013-03-17 06:44:00,23.8,14.1,30.07,WSW,257,2.0,5.0,66,0.00,,,0.00,32767.00,ALWS 1.0-beta,2013-03-17 10:44:00,
2013-03-17 06:49:00,23.7,13.7,30.07,West,274,0.0,1.0,65,0.00,,,0.00,32767.00,ALWS 1.0-beta,2013-03-17 10:49:00,
2013-03-17 06:54:00,23.6,13.6,30.08,West,261,2.0,4.0,65,0.00,,,0.00,32767.00,ALWS 1.0-beta,2013-03-17 10:54:00,
2013-03-17 06:59:00,23.6,13.6,30.08,West,273,0.0,0.0,65,0.00,,,0.00,32767.00,ALWS 1.0-beta,2013-03-17 10:59:00,
2013-03-17 07:04:00,23.5,13.5,30.08,West,274,0.0,2.0,65,0.00,,,0.00,32767.00,ALWS 1.0-beta,2013-03-17 11:04:00,
2013-03-17 07:09:00,23.4,13.7,30.09,West,275,0.0,2.0,66,0.00,,,0.00,32767.00,ALWS 1.0-beta,2013-03-17 11:09:00,
2013-03-17 07:14:00,23.3,14.0,30.09,West,275,0.0,2.0,67,0.00,,,0.00,32767.00,ALWS 1.0-beta,2013-03-17 11:14:00,
2013-03-17 07:19:00,23.0,14.0,30.09,West,265,2.0,2.0,68,0.00,,,0.00,32767.00,ALWS 1.0-beta,2013-03-17 11:19:00,
2013-03-17 07:24:00,22.9,13.9,30.10,West,263,2.0,4.0,68,0.00,,,0.00,32767.00,ALWS 1.0-beta,2013-03-17 11:24:00,
2013-03-17 07:29:00,22.9,13.9,30.10,WSW,246,5.0,7.0,68,0.00,,,0.00,32767.00,ALWS 1.0-beta,2013-03-17 11:29:00,
2013-03-17 07:34:00,22.9,13.9,30.11,West,265,2.0,4.0,68,0.00,,,0.00,32767.00,ALWS 1.0-beta,2013-03-17 11:34:00,
2013-03-17 07:39:00,22.9,13.9,30.11,West,281,3.0,3.0,68,0.00,,,0.00,32767.00,ALWS 1.0-beta,2013-03-17 11:39:00,
2013-03-17 07:44:00,23.0,14.0,30.11,West,279,3.0,5.0,68,0.00,,,0.00,32767.00,ALWS 1.0-beta,2013-03-17 11:44:00,
2013-03-17 07:49:00,23.2,13.9,30.11,WNW,298,4.0,7.0,67,0.00,,,0.00,32767.00,ALWS 1.0-beta,2013-03-17 11:49:00,
2013-03-17 07:54:00,23.4,14.4,30.11,WSW,253,4.0,5.0,68,0.00,,,0.00,32767.00,ALWS 1.0-beta,2013-03-17 11:54:00,
2013-03-17 07:59:00,23.6,14.6,30.12,West,263,4.0,6.0,68,0.00,,,0.00,32767.00,ALWS 1.0-beta,2013-03-17 11:59:00,
2013-03-17 08:04:00,23.8,14.5,30.12,WSW,245,6.0,6.0,67,0.00,,,0.00,32767.00,ALWS 1.0-beta,2013-03-17 12:04:00,
2013-03-17 08:09:00,24.0,14.6,30.13,West,271,5.0,5.0,67,0.00,,,0.00,32767.00,ALWS 1.0-beta,2013-03-17 12:09:00,
2013-03-17 08:14:00,24.3,14.9,30.12,West,275,5.0,5.0,67,0.00,,,0.00,32767.00,ALWS 1.0-beta,2013-03-17 12:14:00,
2013-03-17 08:19:00,24.5,15.1,30.13,West,260,2.0,5.0,67,0.00,,,0.00,32767.00,ALWS 1.0-beta,2013-03-17 12:19:00,
2013-03-17 08:24:00,24.8,15.4,30.12,WNW,290,2.0,4.0,67,0.00,,,0.00,32767.00,ALWS 1.0-beta,2013-03-17 12:24:00,
2013-03-17 08:29:00,25.1,15.4,30.12,WNW,287,0.0,1.0,66,0.00,,,0.00,32767.00,ALWS 1.0-beta,2013-03-17 12:29:00,
2013-03-17 08:34:00,25.4,15.3,30.12,WNW,290,1.0,1.0,65,0.00,,,0.00,32767.00,ALWS 1.0-beta,2013-03-17 12:34:00,
2013-03-17 08:39:00,25.6,15.5,30.13,West,259,0.0,3.0,65,0.00,,,0.00,32767.00,ALWS 1.0-beta,2013-03-17 12:39:00,
2013-03-17 08:44:00,25.8,15.7,30.13,West,265,0.0,1.0,65,0.00,,,0.00,32767.00,ALWS 1.0-beta,2013-03-17 12:44:00,
2013-03-17 08:49:00,26.0,15.9,30.13,WSW,238,5.0,5.0,65,0.00,,,0.00,32767.00,ALWS 1.0-beta,2013-03-17 12:49:00,
2013-03-17 08:54:00,26.2,16.1,30.13,West,272,1.0,2.0,65,0.00,,,0.00,32767.00,ALWS 1.0-beta,2013-03-17 12:54:00,
2013-03-17 08:59:00,26.3,16.1,30.14,West,267,3.0,4.0,65,0.00,,,0.00,32767.00,ALWS 1.0-beta,2013-03-17 12:59:00,
2013-03-17 09:04:00,26.5,16.7,30.14,West,264,0.0,3.0,66,0.00,,,0.00,32767.00,ALWS 1.0-beta,2013-03-17 13:04:00,
2013-03-17 09:09:00,26.5,17.0,30.14,WSW,257,4.0,4.0,67,0.00,,,0.00,32767.00,ALWS 1.0-beta,2013-03-17 13:09:00,
2013-03-17 09:14:00,26.6,16.8,30.15,WSW,257,1.0,5.0,66,0.00,,,0.00,32767.00,ALWS 1.0-beta,2013-03-17 13:14:00,
2013-03-17 09:19:00,26.7,16.5,30.15,West,263,3.0,6.0,65,0.00,,,0.00,32767.00,ALWS 1.0-beta,2013-03-17 13:19:00,
2013-03-17 09:24:00,26.9,17.1,30.15,WNW,284,8.0,8.0,66,0.00,,,0.00,32767.00,ALWS 1.0-beta,2013-03-17 13:24:00,
2013-03-17 09:29:00,27.0,17.5,30.14,NW,325,7.0,7.0,67,0.00,,,0.01,32767.00,ALWS 1.0-beta,2013-03-17 13:29:00,
2013-03-17 09:34:00,26.9,17.1,30.14,West,267,3.0,5.0,66,0.00,,,0.01,32767.00,ALWS 1.0-beta,2013-03-17 13:34:00,
2013-03-17 09:39:00,26.7,16.9,30.14,West,260,4.0,4.0,66,0.00,,,0.01,32767.00,ALWS 1.0-beta,2013-03-17 13:39:00,
2013-03-17 09:44:00,26.7,16.5,30.15,West,264,0.0,1.0,65,0.00,,,0.01,32767.00,ALWS 1.0-beta,2013-03-17 13:44:00,
2013-03-17 09:49:00,27.0,17.2,30.15,NW,309,1.0,4.0,66,0.00,,,0.01,32767.00,ALWS 1.0-beta,2013-03-17 13:49:00,
2013-03-17 09:54:00,27.5,17.6,30.15,WSW,245,0.0,0.0,66,0.00,,,0.01,32767.00,ALWS 1.0-beta,2013-03-17 13:54:00,
2013-03-17 09:59:00,27.9,18.0,30.16,West,280,0.0,0.0,66,0.00,,,0.01,32767.00,ALWS 1.0-beta,2013-03-17 13:59:00,
2013-03-17 10:04:00,28.2,17.2,30.16,WNW,287,6.0,6.0,63,0.00,,,0.01,32767.00,ALWS 1.0-beta,2013-03-17 14:04:00,
2013-03-17 10:09:00,28.1,17.1,30.16,WNW,297,2.0,2.0,63,0.00,,,0.01,32767.00,ALWS 1.0-beta,2013-03-17 14:09:00,
2013-03-17 10:14:00,28.7,18.4,30.16,NNW,344,4.0,4.0,65,0.00,,,0.01,32767.00,ALWS 1.0-beta,2013-03-17 14:14:00,
2013-03-17 10:19:00,28.7,18.4,30.16,West,263,4.0,6.0,65,0.00,,,0.01,32767.00,ALWS 1.0-beta,2013-03-17 14:19:00,
2013-03-17 10:24:00,28.8,18.2,30.16,West,273,6.0,7.0,64,0.00,,,0.01,32767.00,ALWS 1.0-beta,2013-03-17 14:24:00,
2013-03-17 10:29:00,28.5,17.9,30.16,NW,317,1.0,1.0,64,0.00,,,0.01,32767.00,ALWS 1.0-beta,2013-03-17 14:29:00,
2013-03-17 10:34:00,28.9,17.9,30.16,NW,323,0.0,0.0,63,0.00,,,0.01,32767.00,ALWS 1.0-beta,2013-03-17 14:34:00,
2013-03-17 10:39:00,29.2,18.5,30.16,NW,310,1.0,1.0,64,0.00,,,0.01,32767.00,ALWS 1.0-beta,2013-03-17 14:39:00,
2013-03-17 10:44:00,29.9,19.6,30.16,West,271,2.0,2.0,65,0.00,,,0.01,32767.00,ALWS 1.0-beta,2013-03-17 14:44:00,
2013-03-17 10:49:00,29.8,19.1,30.17,WSW,244,0.0,0.0,64,0.00,,,0.01,32767.00,ALWS 1.0-beta,2013-03-17 14:49:00,
2013-03-17 10:54:00,30.1,18.7,30.17,WNW,287,4.0,6.0,62,0.00,,,0.01,32767.00,ALWS 1.0-beta,2013-03-17 14:54:00,
2013-03-17 10:59:00,30.4,16.6,30.17,NW,312,2.0,2.0,56,0.00,,,0.01,32767.00,ALWS 1.0-beta,2013-03-17 14:59:00,
2013-03-17 11:04:00,31.0,18.0,30.17,WSW,252,5.0,7.0,58,0.00,,,0.01,32767.00,ALWS 1.0-beta,2013-03-17 15:04:00,
2013-03-17 11:09:00,31.1,17.2,30.17,NNW,327,0.0,1.0,56,0.00,,,0.01,32767.00,ALWS 1.0-beta,2013-03-17 15:09:00,
2013-03-17 11:14:00,31.6,18.5,30.16,West,273,6.0,10.0,58,0.00,,,0.01,32767.00,ALWS 1.0-beta,2013-03-17 15:14:00,
2013-03-17 11:19:00,32.0,18.5,30.16,West,271,4.0,4.0,57,0.00,,,0.01,32767.00,ALWS 1.0-beta,2013-03-17 15:19:00,
2013-03-17 11:24:00,31.7,17.4,30.16,NNW,340,4.0,5.0,55,0.00,,,0.01,32767.00,ALWS 1.0-beta,2013-03-17 15:24:00,
2013-03-17 11:29:00,32.2,18.3,30.16,WSW,252,4.0,5.0,56,0.00,,,0.01,32767.00,ALWS 1.0-beta,2013-03-17 15:29:00,
2013-03-17 11:34:00,32.1,17.8,30.16,WNW,282,8.0,11.0,55,0.00,,,0.01,32767.00,ALWS 1.0-beta,2013-03-17 15:34:00,
2013-03-17 11:39:00,32.5,17.7,30.15,North,360,1.0,1.0,54,0.00,,,0.01,32767.00,ALWS 1.0-beta,2013-03-17 15:39:00,
2013-03-17 11:44:00,32.0,16.8,30.15,WNW,283,6.0,6.0,53,0.00,,,0.01,32767.00,ALWS 1.0-beta,2013-03-17 15:44:00,
2013-03-17 11:49:00,32.5,16.9,30.15,West,264,1.0,5.0,52,0.00,,,0.02,32767.00,ALWS 1.0-beta,2013-03-17 15:49:00,
2013-03-17 11:54:00,32.2,16.1,30.15,NW,311,0.0,1.0,51,0.00,,,0.02,32767.00,ALWS 1.0-beta,2013-03-17 15:54:00,
2013-03-17 11:59:00,33.2,17.9,30.15,West,269,9.0,9.0,53,0.00,,,0.02,32767.00,ALWS 1.0-beta,2013-03-17 15:59:00,
2013-03-17 12:04:00,33.2,17.5,30.15,NW,315,4.0,7.0,52,0.00,,,0.02,32767.00,ALWS 1.0-beta,2013-03-17 16:04:00,
2013-03-17 12:09:00,33.4,15.8,30.15,North,360,5.0,5.0,48,0.00,,,0.02,32767.00,ALWS 1.0-beta,2013-03-17 16:09:00,
2013-03-17 12:14:00,34.3,18.5,30.15,WNW,302,6.0,8.0,52,0.00,,,0.02,32767.00,ALWS 1.0-beta,2013-03-17 16:14:00,
2013-03-17 12:19:00,34.0,17.3,30.15,WNW,286,0.0,2.0,50,0.00,,,0.02,32767.00,ALWS 1.0-beta,2013-03-17 16:19:00,
2013-03-17 12:24:00,33.7,17.0,30.15,NW,311,2.0,2.0,50,0.00,,,0.02,32767.00,ALWS 1.0-beta,2013-03-17 16:24:00,
2013-03-17 12:30:00,34.4,17.2,30.16,NW,306,4.0,4.0,49,0.00,,,0.02,32767.00,ALWS 1.0-beta,2013-03-17 16:30:00,
2013-03-17 12:36:00,34.5,16.9,30.15,NW,307,6.0,6.0,48,0.00,,,0.02,32767.00,ALWS 1.0-beta,2013-03-17 16:36:00,
2013-03-17 12:41:00,34.8,16.6,30.15,West,281,7.0,7.0,47,0.00,,,0.02,32767.00,ALWS 1.0-beta,2013-03-17 16:41:00,
2013-03-17 12:46:00,34.2,15.6,30.15,WNW,288,6.0,6.0,46,0.00,,,0.02,32767.00,ALWS 1.0-beta,2013-03-17 16:46:00,
2013-03-17 12:51:00,34.6,16.5,30.16,WNW,292,4.0,4.0,47,0.00,,,0.02,32767.00,ALWS 1.0-beta,2013-03-17 16:51:00,
2013-03-17 12:56:00,34.6,16.0,30.16,WNW,284,5.0,12.0,46,0.00,,,0.02,32767.00,ALWS 1.0-beta,2013-03-17 16:56:00,
2013-03-17 13:01:00,34.4,14.8,30.16,North,360,6.0,6.0,44,0.00,,,0.02,32767.00,ALWS 1.0-beta,2013-03-17 17:01:00,
2013-03-17 13:07:00,34.4,16.3,30.16,NW,304,5.0,6.0,47,0.00,,,0.02,32767.00,ALWS 1.0-beta,2013-03-17 17:07:00,
2013-03-17 13:12:00,34.5,16.9,30.16,NW,315,1.0,1.0,48,0.00,,,0.02,32767.00,ALWS 1.0-beta,2013-03-17 17:12:00,
2013-03-17 13:17:00,34.8,14.6,30.16,NW,306,0.0,4.0,43,0.00,,,0.02,32767.00,ALWS 1.0-beta,2013-03-17 17:17:00,
2013-03-17 13:22:00,35.1,16.9,30.16,WNW,294,2.0,5.0,47,0.00,,,0.02,32767.00,ALWS 1.0-beta,2013-03-17 17:22:00,
2013-03-17 13:27:00,35.6,16.4,30.16,NNW,342,0.0,2.0,45,0.00,,,0.02,32767.00,ALWS 1.0-beta,2013-03-17 17:27:00,
2013-03-17 13:32:00,35.1,15.9,30.16,WNW,289,6.0,13.0,45,0.00,,,0.02,32767.00,ALWS 1.0-beta,2013-03-17 17:32:00,
2013-03-17 13:37:00,34.8,15.1,30.16,North,350,0.0,6.0,44,0.00,,,0.02,32767.00,ALWS 1.0-beta,2013-03-17 17:37:00,
2013-03-17 13:42:00,34.8,15.6,30.16,WNW,295,5.0,5.0,45,0.00,,,0.02,32767.00,ALWS 1.0-beta,2013-03-17 17:42:00,
2013-03-17 13:47:00,34.9,14.7,30.16,WNW,302,5.0,5.0,43,0.00,,,0.02,32767.00,ALWS 1.0-beta,2013-03-17 17:47:00,
2013-03-17 13:52:00,35.3,14.0,30.16,WSW,258,6.0,7.0,41,0.00,,,0.02,32767.00,ALWS 1.0-beta,2013-03-17 17:52:00,
2013-03-17 13:57:00,35.9,17.6,30.16,West,265,5.0,7.0,47,0.00,,,0.02,32767.00,ALWS 1.0-beta,2013-03-17 17:57:00,
2013-03-17 14:02:00,36.1,16.8,30.17,WNW,285,4.0,4.0,45,0.00,,,0.02,32767.00,ALWS 1.0-beta,2013-03-17 18:02:00,
2013-03-17 14:07:00,35.9,16.6,30.16,SW,234,7.0,7.0,45,0.00,,,0.02,32767.00,ALWS 1.0-beta,2013-03-17 18:07:00,
2013-03-17 14:12:00,35.9,15.6,30.16,NW,318,0.0,5.0,43,0.00,,,0.02,32767.00,ALWS 1.0-beta,2013-03-17 18:12:00,
2013-03-17 14:17:00,36.1,16.3,30.16,WNW,285,6.0,6.0,44,0.00,,,0.02,32767.00,ALWS 1.0-beta,2013-03-17 18:17:00,
2013-03-17 14:22:00,35.5,15.2,30.16,NNW,344,5.0,5.0,43,0.00,,,0.02,32767.00,ALWS 1.0-beta,2013-03-17 18:22:00,
2013-03-17 14:27:00,36.2,16.4,30.17,NNW,329,0.0,1.0,44,0.00,,,0.02,32767.00,ALWS 1.0-beta,2013-03-17 18:27:00,
2013-03-17 14:32:00,36.1,15.2,30.17,SW,227,6.0,7.0,42,0.00,,,0.02,32767.00,ALWS 1.0-beta,2013-03-17 18:32:00,
2013-03-17 14:37:00,36.1,15.2,30.17,NW,308,1.0,1.0,42,0.00,,,0.02,32767.00,ALWS 1.0-beta,2013-03-17 18:37:00,
2013-03-17 14:42:00,36.4,15.5,30.17,WNW,292,4.0,4.0,42,0.00,,,0.02,32767.00,ALWS 1.0-beta,2013-03-17 18:42:00,
2013-03-17 14:47:00,36.2,14.2,30.17,West,260,9.0,9.0,40,0.00,,,0.02,32767.00,ALWS 1.0-beta,2013-03-17 18:47:00,
2013-03-17 14:52:00,36.5,15.1,30.16,WNW,288,1.0,5.0,41,0.00,,,0.02,32767.00,ALWS 1.0-beta,2013-03-17 18:52:00,
2013-03-17 14:57:00,35.9,13.9,30.16,West,273,6.0,6.0,40,0.00,,,0.02,32767.00,ALWS 1.0-beta,2013-03-17 18:57:00,
2013-03-17 15:02:00,35.8,14.4,30.16,WNW,296,6.0,6.0,41,0.00,,,0.02,32767.00,ALWS 1.0-beta,2013-03-17 19:02:00,
2013-03-17 15:07:00,35.9,13.4,30.16,WSW,249,7.0,7.0,39,0.00,,,0.02,32767.00,ALWS 1.0-beta,2013-03-17 19:07:00,
2013-03-17 15:12:00,36.7,15.2,30.16,WSW,251,6.0,9.0,41,0.00,,,0.02,32767.00,ALWS 1.0-beta,2013-03-17 19:12:00,
2013-03-17 15:17:00,36.7,15.2,30.16,WNW,290,5.0,6.0,41,0.00,,,0.02,32767.00,ALWS 1.0-beta,2013-03-17 19:17:00,
2013-03-17 15:22:00,36.7,15.2,30.16,WNW,303,6.0,8.0,41,0.00,,,0.02,32767.00,ALWS 1.0-beta,2013-03-17 19:22:00,
2013-03-17 15:27:00,36.3,14.3,30.16,NW,310,2.0,5.0,40,0.00,,,0.02,32767.00,ALWS 1.0-beta,2013-03-17 19:27:00,
2013-03-17 15:32:00,36.6,16.2,30.16,NNW,330,1.0,1.0,43,0.00,,,0.02,32767.00,ALWS 1.0-beta,2013-03-17 19:32:00,
2013-03-17 15:37:00,36.6,14.6,30.16,NNE,16,5.0,6.0,40,0.00,,,0.02,32767.00,ALWS 1.0-beta,2013-03-17 19:37:00,
2013-03-17 15:42:00,36.2,13.1,30.16,NW,315,2.0,5.0,38,0.00,,,0.02,32767.00,ALWS 1.0-beta,2013-03-17 19:42:00,
2013-03-17 15:47:00,36.4,14.4,30.17,WNW,300,10.0,10.0,40,0.00,,,0.02,32767.00,ALWS 1.0-beta,2013-03-17 19:47:00,
2013-03-17 15:52:00,36.1,13.6,30.17,WSW,252,4.0,4.0,39,0.00,,,0.02,32767.00,ALWS 1.0-beta,2013-03-17 19:52:00,
2013-03-17 15:57:00,36.2,15.9,30.17,WNW,300,0.0,5.0,43,0.00,,,0.02,32767.00,ALWS 1.0-beta,2013-03-17 19:57:00,
2013-03-17 16:02:00,36.6,15.1,30.17,WNW,301,0.0,1.0,41,0.00,,,0.02,32767.00,ALWS 1.0-beta,2013-03-17 20:02:00,
2013-03-17 16:07:00,37.0,15.5,30.17,NE,44,0.0,6.0,41,0.00,,,0.02,32767.00,ALWS 1.0-beta,2013-03-17 20:07:00,
2013-03-17 16:12:00,36.9,14.3,30.17,WNW,300,4.0,8.0,39,0.00,,,0.02,32767.00,ALWS 1.0-beta,2013-03-17 20:12:00,
2013-03-17 16:17:00,37.3,14.6,30.17,WNW,286,4.0,4.0,39,0.00,,,0.02,32767.00,ALWS 1.0-beta,2013-03-17 20:17:00,
2013-03-17 16:22:00,36.8,13.6,30.17,NNE,31,0.0,0.0,38,0.00,,,0.02,32767.00,ALWS 1.0-beta,2013-03-17 20:22:00,
2013-03-17 16:27:00,36.4,14.4,30.17,NW,315,0.0,1.0,40,0.00,,,0.02,32767.00,ALWS 1.0-beta,2013-03-17 20:27:00,
2013-03-17 16:32:00,36.6,14.6,30.17,WNW,295,5.0,8.0,40,0.00,,,0.02,32767.00,ALWS 1.0-beta,2013-03-17 20:32:00,
2013-03-17 16:37:00,36.4,13.2,30.18,NNE,32,0.0,1.0,38,0.00,,,0.02,32767.00,ALWS 1.0-beta,2013-03-17 20:37:00,
2013-03-17 16:42:00,36.4,14.4,30.18,WNW,288,1.0,11.0,40,0.00,,,0.02,32767.00,ALWS 1.0-beta,2013-03-17 20:42:00,
2013-03-17 16:47:00,36.3,14.3,30.18,West,267,4.0,7.0,40,0.00,,,0.02,32767.00,ALWS 1.0-beta,2013-03-17 20:47:00,
2013-03-17 16:52:00,36.4,14.4,30.18,NW,314,0.0,1.0,40,0.00,,,0.02,32767.00,ALWS 1.0-beta,2013-03-17 20:52:00,
2013-03-17 16:57:00,36.6,14.0,30.18,WNW,286,6.0,6.0,39,0.00,,,0.02,32767.00,ALWS 1.0-beta,2013-03-17 20:57:00,
2013-03-17 17:03:00,36.6,14.0,30.18,NNW,338,0.0,0.0,39,0.00,,,0.02,32767.00,ALWS 1.0-beta,2013-03-17 21:03:00,
2013-03-17 17:08:00,36.1,13.0,30.18,North,5,0.0,5.0,38,0.00,,,0.02,32767.00,ALWS 1.0-beta,2013-03-17 21:08:00,
2013-03-17 17:13:00,36.0,13.5,30.19,WNW,302,2.0,9.0,39,0.00,,,0.02,32767.00,ALWS 1.0-beta,2013-03-17 21:13:00,
2013-03-17 17:18:00,35.8,13.9,30.19,NNW,346,0.0,0.0,40,0.00,,,0.02,32767.00,ALWS 1.0-beta,2013-03-17 21:18:00,
2013-03-17 17:23:00,36.0,13.5,30.19,North,355,0.0,5.0,39,0.00,,,0.02,32767.00,ALWS 1.0-beta,2013-03-17 21:23:00,
2013-03-17 17:28:00,36.0,14.0,30.19,NW,312,0.0,0.0,40,0.00,,,0.02,32767.00,ALWS 1.0-beta,2013-03-17 21:28:00,
2013-03-17 17:33:00,36.0,14.6,30.19,NW,326,2.0,2.0,41,0.00,,,0.02,32767.00,ALWS 1.0-beta,2013-03-17 21:33:00,
2013-03-17 17:38:00,35.7,13.2,30.20,West,274,5.0,6.0,39,0.00,,,0.02,32767.00,ALWS 1.0-beta,2013-03-17 21:38:00,
2013-03-17 17:43:00,35.5,11.8,30.20,NW,307,3.0,6.0,37,0.00,,,0.02,32767.00,ALWS 1.0-beta,2013-03-17 21:43:00,
2013-03-17 17:48:00,35.4,12.9,30.20,NW,305,0.0,0.0,39,0.00,,,0.02,32767.00,ALWS 1.0-beta,2013-03-17 21:48:00,
2013-03-17 17:53:00,35.3,12.8,30.20,West,280,0.0,2.0,39,0.00,,,0.02,32767.00,ALWS 1.0-beta,2013-03-17 21:53:00,
2013-03-17 17:58:00,35.0,12.0,30.20,West,281,0.0,1.0,38,0.00,,,0.02,32767.00,ALWS 1.0-beta,2013-03-17 21:58:00,
2013-03-17 18:03:00,34.8,11.8,30.21,NW,308,0.0,0.0,38,0.00,,,0.02,32767.00,ALWS 1.0-beta,2013-03-17 22:03:00,
2013-03-17 18:08:00,34.7,12.9,30.21,NW,313,0.0,0.0,40,0.00,,,0.02,32767.00,ALWS 1.0-beta,2013-03-17 22:08:00,
2013-03-17 18:13:00,34.5,12.1,30.21,NW,319,0.0,0.0,39,0.00,,,0.02,32767.00,ALWS 1.0-beta,2013-03-17 22:13:00,
2013-03-17 18:18:00,34.4,12.6,30.22,WNW,291,0.0,1.0,40,0.00,,,0.02,32767.00,ALWS 1.0-beta,2013-03-17 22:18:00,
2013-03-17 18:23:00,34.4,12.6,30.22,WNW,298,0.0,0.0,40,0.00,,,0.02,32767.00,ALWS 1.0-beta,2013-03-17 22:23:00,
2013-03-17 18:28:00,34.1,12.9,30.22,NW,314,0.0,1.0,41,0.00,,,0.02,32767.00,ALWS 1.0-beta,2013-03-17 22:28:00,
2013-03-17 18:33:00,33.8,12.1,30.23,NW,314,0.0,4.0,40,0.00,,,0.02,32767.00,ALWS 1.0-beta,2013-03-17 22:33:00,
2013-03-17 18:38:00,33.7,13.6,30.23,WNW,288,1.0,5.0,43,0.00,,,0.02,32767.00,ALWS 1.0-beta,2013-03-17 22:38:00,
2013-03-17 18:43:00,33.6,13.0,30.23,NW,307,0.0,0.0,42,0.00,,,0.02,32767.00,ALWS 1.0-beta,2013-03-17 22:43:00,
2013-03-17 18:48:00,33.3,12.2,30.23,NNW,329,1.0,1.0,41,0.00,,,0.02,32767.00,ALWS 1.0-beta,2013-03-17 22:48:00,
2013-03-17 18:53:00,33.2,12.6,30.23,North,360,5.0,7.0,42,0.00,,,0.02,32767.00,ALWS 1.0-beta,2013-03-17 22:53:00,
2013-03-17 18:58:00,33.0,12.4,30.23,NW,310,2.0,2.0,42,0.00,,,0.02,32767.00,ALWS 1.0-beta,2013-03-17 22:58:00,
2013-03-17 19:02:00,32.8,12.8,30.24,NW,310,0.0,0.0,43,0.00,,,0.02,32767.00,ALWS 1.0-beta,2013-03-17 23:02:00,
2013-03-17 19:07:00,32.5,12.5,30.25,NW,307,0.0,1.0,43,0.00,,,0.02,32767.00,ALWS 1.0-beta,2013-03-17 23:07:00,
2013-03-17 19:12:00,32.3,12.3,30.25,NNE,14,0.0,0.0,43,0.00,,,0.02,32767.00,ALWS 1.0-beta,2013-03-17 23:12:00,
2013-03-17 19:17:00,32.1,12.7,30.25,NW,318,2.0,2.0,44,0.00,,,0.02,32767.00,ALWS 1.0-beta,2013-03-17 23:17:00,
2013-03-17 19:22:00,31.9,12.5,30.25,WNW,296,0.0,1.0,44,0.00,,,0.02,32767.00,ALWS 1.0-beta,2013-03-17 23:22:00,
2013-03-17 19:28:00,31.9,12.5,30.25,NW,323,1.0,1.0,44,0.00,,,0.02,32767.00,ALWS 1.0-beta,2013-03-17 23:28:00,
2013-03-17 19:33:00,31.9,13.5,30.26,WNW,288,6.0,6.0,46,0.00,,,0.02,32767.00,ALWS 1.0-beta,2013-03-17 23:33:00,
2013-03-17 19:38:00,31.7,12.8,30.26,NW,306,0.0,0.0,45,0.00,,,0.02,32767.00,ALWS 1.0-beta,2013-03-17 23:38:00,
2013-03-17 19:43:00,31.5,12.6,30.26,NNW,332,0.0,0.0,45,0.00,,,0.02,32767.00,ALWS 1.0-beta,2013-03-17 23:43:00,
2013-03-17 19:48:00,31.5,12.1,30.27,NW,313,0.0,0.0,44,0.00,,,0.02,32767.00,ALWS 1.0-beta,2013-03-17 23:48:00,
2013-03-17 19:53:00,31.5,12.1,30.27,NW,325,0.0,0.0,44,0.00,,,0.02,32767.00,ALWS 1.0-beta,2013-03-17 23:53:00,
2013-03-17 19:58:00,31.3,12.4,30.27,WNW,298,1.0,1.0,45,0.00,,,0.02,32767.00,ALWS 1.0-beta,2013-03-17 23:58:00,
2013-03-17 20:03:00,31.2,12.4,30.27,North,350,2.0,2.0,45,0.00,,,0.02,32767.00,ALWS 1.0-beta,2013-03-18 00:03:00,
2013-03-17 20:08:00,31.0,13.1,30.27,NW,307,0.0,1.0,47,0.00,,,0.02,32767.00,ALWS 1.0-beta,2013-03-18 00:08:00,
2013-03-17 20:13:00,30.7,13.4,30.27,NW,305,2.0,6.0,48,0.00,,,0.02,32767.00,ALWS 1.0-beta,2013-03-18 00:13:00,
2013-03-17 20:18:00,30.6,12.8,30.27,NW,309,1.0,6.0,47,0.00,,,0.02,32767.00,ALWS 1.0-beta,2013-03-18 00:18:00,
2013-03-17 20:23:00,30.6,13.3,30.28,WNW,284,0.0,0.0,48,0.00,,,0.02,32767.00,ALWS 1.0-beta,2013-03-18 00:23:00,
2013-03-17 20:28:00,30.5,12.2,30.28,NNW,348,0.0,0.0,46,0.00,,,0.02,32767.00,ALWS 1.0-beta,2013-03-18 00:28:00,
2013-03-17 20:33:00,30.5,12.7,30.29,NNW,348,0.0,0.0,47,0.00,,,0.02,32767.00,ALWS 1.0-beta,2013-03-18 00:33:00,
2013-03-17 20:37:00,30.2,11.9,30.29,NNW,348,0.0,0.0,46,0.00,,,0.02,32767.00,ALWS 1.0-beta,2013-03-18 00:37:00,
2013-03-17 20:42:00,29.8,12.0,30.29,NNW,348,1.0,1.0,47,0.00,,,0.02,32767.00,ALWS 1.0-beta,2013-03-18 00:42:00,
2013-03-17 20:48:00,29.5,13.2,30.30,NW,311,0.0,0.0,50,0.00,,,0.02,32767.00,ALWS 1.0-beta,2013-03-18 00:48:00,
2013-03-17 20:52:00,29.3,12.5,30.30,NW,311,0.0,0.0,49,0.00,,,0.02,32767.00,ALWS 1.0-beta,2013-03-18 00:52:00,
2013-03-17 20:57:00,29.3,12.5,30.30,NW,311,0.0,0.0,49,0.00,,,0.02,32767.00,ALWS 1.0-beta,2013-03-18 00:57:00,
2013-03-17 21:03:00,29.2,12.9,30.30,NNE,12,0.0,0.0,50,0.00,,,0.02,32767.00,ALWS 1.0-beta,2013-03-18 01:03:00,
2013-03-17 21:08:00,29.2,12.4,30.30,NW,323,0.0,0.0,49,0.00,,,0.02,32767.00,ALWS 1.0-beta,2013-03-18 01:08:00,
2013-03-17 21:13:00,29.3,13.4,30.30,NW,322,0.0,0.0,51,0.00,,,0.02,32767.00,ALWS 1.0-beta,2013-03-18 01:13:00,
2013-03-17 21:18:00,29.2,13.3,30.30,NW,322,0.0,0.0,51,0.00,,,0.02,32767.00,ALWS 1.0-beta,2013-03-18 01:18:00,
2013-03-17 21:22:00,29.1,12.8,30.31,NW,310,0.0,0.0,50,0.00,,,0.02,32767.00,ALWS 1.0-beta,2013-03-18 01:22:00,
2013-03-17 21:27:00,29.0,13.1,30.31,NW,310,0.0,0.0,51,0.00,,,0.02,32767.00,ALWS 1.0-beta,2013-03-18 01:27:00,
2013-03-17 21:32:00,28.7,12.9,30.31,NW,319,0.0,0.0,51,0.00,,,0.02,32767.00,ALWS 1.0-beta,2013-03-18 01:32:00,
2013-03-17 21:37:00,28.5,12.7,30.31,WNW,298,7.0,7.0,51,0.00,,,0.02,32767.00,ALWS 1.0-beta,2013-03-18 01:37:00,
2013-03-17 21:42:00,28.7,12.9,30.31,North,360,0.0,2.0,51,0.00,,,0.02,32767.00,ALWS 1.0-beta,2013-03-18 01:42:00,
2013-03-17 21:47:00,28.8,12.5,30.32,NW,306,3.0,6.0,50,0.00,,,0.02,32767.00,ALWS 1.0-beta,2013-03-18 01:47:00,
2013-03-17 21:52:00,28.8,13.0,30.32,NW,309,1.0,3.0,51,0.00,,,0.02,32767.00,ALWS 1.0-beta,2013-03-18 01:52:00,
2013-03-17 21:57:00,28.7,12.9,30.32,WNW,298,0.0,0.0,51,0.00,,,0.02,32767.00,ALWS 1.0-beta,2013-03-18 01:57:00,
2013-03-17 22:02:00,28.6,12.3,30.32,WNW,302,0.0,0.0,50,0.00,,,0.02,32767.00,ALWS 1.0-beta,2013-03-18 02:02:00,
2013-03-17 22:07:00,28.7,12.4,30.32,WNW,298,0.0,0.0,50,0.00,,,0.02,32767.00,ALWS 1.0-beta,2013-03-18 02:07:00,
2013-03-17 22:12:00,28.7,12.4,30.33,WNW,302,0.0,1.0,50,0.00,,,0.02,32767.00,ALWS 1.0-beta,2013-03-18 02:12:00,
2013-03-17 22:17:00,28.7,12.4,30.33,NW,308,0.0,0.0,50,0.00,,,0.02,32767.00,ALWS 1.0-beta,2013-03-18 02:17:00,
2013-03-17 22:22:00,28.6,12.3,30.33,NW,317,0.0,2.0,50,0.00,,,0.02,32767.00,ALWS 1.0-beta,2013-03-18 02:22:00,
2013-03-17 22:27:00,28.5,12.7,30.34,NW,314,0.0,2.0,51,0.00,,,0.02,32767.00,ALWS 1.0-beta,2013-03-18 02:27:00,
2013-03-17 22:32:00,28.5,12.7,30.34,WNW,294,0.0,0.0,51,0.00,,,0.02,32767.00,ALWS 1.0-beta,2013-03-18 02:32:00,
2013-03-17 22:37:00,28.4,12.6,30.34,WNW,286,0.0,0.0,51,0.00,,,0.02,32767.00,ALWS 1.0-beta,2013-03-18 02:37:00,
2013-03-17 22:42:00,28.1,12.3,30.34,WNW,289,0.0,0.0,51,0.00,,,0.02,32767.00,ALWS 1.0-beta,2013-03-18 02:42:00,
2013-03-17 22:48:00,28.0,12.2,30.34,WNW,288,0.0,0.0,51,0.00,,,0.02,32767.00,ALWS 1.0-beta,2013-03-18 02:48:00,
2013-03-17 22:53:00,28.0,12.7,30.35,WNW,288,1.0,2.0,52,0.00,,,0.02,32767.00,ALWS 1.0-beta,2013-03-18 02:53:00,
2013-03-17 22:58:00,28.0,12.2,30.35,WNW,302,0.0,0.0,51,0.00,,,0.02,32767.00,ALWS 1.0-beta,2013-03-18 02:58:00,
2013-03-17 23:03:00,28.1,12.3,30.34,WNW,302,0.0,0.0,51,0.00,,,0.02,32767.00,ALWS 1.0-beta,2013-03-18 03:03:00,
2013-03-17 23:08:00,27.6,12.3,30.34,WNW,302,0.0,0.0,52,0.00,,,0.02,32767.00,ALWS 1.0-beta,2013-03-18 03:08:00,
2013-03-17 23:13:00,27.2,12.8,30.35,WNW,302,0.0,0.0,54,0.00,,,0.02,32767.00,ALWS 1.0-beta,2013-03-18 03:13:00,
2013-03-17 23:18:00,27.1,12.2,30.35,WNW,302,0.0,0.0,53,0.00,,,0.02,32767.00,ALWS 1.0-beta,2013-03-18 03:18:00,
2013-03-17 23:22:00,26.6,12.2,30.35,WNW,302,0.0,0.0,54,0.00,,,0.02,32767.00,ALWS 1.0-beta,2013-03-18 03:22:00,
2013-03-17 23:27:00,26.4,12.4,30.35,NW,325,0.0,0.0,55,0.00,,,0.02,32767.00,ALWS 1.0-beta,2013-03-18 03:27:00,
2013-03-17 23:30:00,27.5,12.2,30.35,North,349,6.0,6.0,52,0.00,,,0.02,32767.00,ALWS 1.0-beta,2013-03-18 03:30:00,
2013-03-17 23:31:00,27.6,12.3,30.35,North,355,2.0,2.0,52,0.00,,,0.02,32767.00,ALWS 1.0-beta,2013-03-18 03:31:00,
2013-03-17 23:32:00,26.7,12.3,30.35,ENE,69,0.0,0.0,54,0.00,,,0.02,32767.00,ALWS 1.0-beta,2013-03-18 03:32:00,
2013-03-17 23:33:00,27.6,12.7,30.35,North,355,0.0,0.0,53,0.00,,,0.02,32767.00,ALWS 1.0-beta,2013-03-18 03:33:00,
2013-03-17 23:34:00,27.6,12.3,30.35,NW,309,2.0,2.0,52,0.00,,,0.00,32767.00,ALWS 1.0-beta,2013-03-18 03:34:00,
2013-03-17 23:37:00,27.0,12.6,30.35,NNW,348,0.0,0.0,54,0.00,,,0.02,32767.00,ALWS 1.0-beta,2013-03-18 03:37:00,
2013-03-17 23:42:00,27.3,12.4,30.35,NW,309,0.0,0.0,53,0.00,,,0.02,32767.00,ALWS 1.0-beta,2013-03-18 03:42:00,
2013-03-17 23:47:00,27.0,13.0,30.35,NNW,329,2.0,2.0,55,0.00,,,0.02,32767.00,ALWS 1.0-beta,2013-03-18 03:47:00,
2013-03-17 23:52:00,27.1,12.7,30.35,NW,319,4.0,4.0,54,0.00,,,0.02,32767.00,ALWS 1.0-beta,2013-03-18 03:52:00,
2013-03-17 23:57:00,27.4,12.1,30.35,North,10,0.0,7.0,52,0.00,,,0.02,32767.00,ALWS 1.0-beta,2013-03-18 03:57:00,